EGFF/CWL METAR and TAF weather

Enter ICAO airport designator
Station Type Date Time Source
EGFF METAR 2022/06/28 15:20 UTC NOAA

EGFF 281520Z AUTO 19012KT 9999 BKN023/// //////TCU 16/12 Q1013


Station Type Date Time Source
EGFF Decoded METAR 2022/06/28 15:20 UTC NOAA

Cardiff-Wales Airport, United Kingdom (EGFF) 51-24N 003-21W 0M
Jun 28, 2022 - 11:20 AM EDT / 2022.06.28 1520 UTC
Wind: from the S (190 degrees) at 14 MPH (12 KT):0
Visibility: greater than 7 mile(s):0
Sky conditions: mostly cloudy
Weather: Towering cumulus clouds observed
Temperature: 60 F (16 C)
Dew Point: 53 F (12 C)
Relative Humidity: 77%
Pressure (altimeter): 29.91 in. Hg (1013 hPa)
ob: EGFF 281520Z AUTO 19012KT 9999 BKN023/// //////TCU 16/12 Q1013
cycle: 15

Station Type Date Time Source
EGFF TAF 2022/06/28 12:09 UTC NOAA

TAF EGFF 281056Z 2812/2912 17012KT 9999 FEW012 SCT030
TEMPO 2812/2821 20017G27KT PROB30
TEMPO 2814/2816 8000 RA
TEMPO 2816/2901 6000 RA BKN010 PROB30
TEMPO 2820/2906 BKN008 PROB30
TEMPO 2906/2912 6000 SHRA

Example: see airport list